createdAt,value
2019-05-26T00:02:10.189Z,14.80
2019-05-26T00:04:39.624Z,14.80
2019-05-26T00:07:09.040Z,14.80
2019-05-26T00:09:38.435Z,14.80
2019-05-26T00:12:08.624Z,14.70
2019-05-26T00:14:38.018Z,14.70
2019-05-26T00:17:07.475Z,14.70
2019-05-26T00:19:37.025Z,14.70
2019-05-26T00:22:06.500Z,14.70
2019-05-26T00:24:36.211Z,14.70
2019-05-26T00:27:05.635Z,14.70
2019-05-26T00:29:35.193Z,14.60
2019-05-26T00:32:04.571Z,14.60
2019-05-26T00:34:33.935Z,14.60
2019-05-26T00:37:03.338Z,14.50
2019-05-26T00:39:32.807Z,14.50
2019-05-26T00:42:02.131Z,14.50
2019-05-26T00:44:31.566Z,14.50
2019-05-26T00:47:01.060Z,14.40
2019-05-26T00:49:30.476Z,14.40
2019-05-26T00:51:59.985Z,14.40
2019-05-26T00:54:29.396Z,14.40
2019-05-26T00:56:58.804Z,14.40
2019-05-26T00:59:28.183Z,14.40
2019-05-26T01:01:57.976Z,14.40
2019-05-26T01:04:30.795Z,14.40
2019-05-26T01:07:00.830Z,14.40
2019-05-26T01:09:30.888Z,14.40
2019-05-26T01:12:01.917Z,14.40
2019-05-26T01:14:33.708Z,14.30
2019-05-26T01:17:03.495Z,14.30
2019-05-26T01:19:33.102Z,14.30
2019-05-26T01:22:03.264Z,14.30
2019-05-26T01:24:35.803Z,14.30
2019-05-26T01:27:05.127Z,14.30
2019-05-26T01:29:34.695Z,14.30
2019-05-26T01:32:04.085Z,14.20
2019-05-26T01:34:35.210Z,14.20
2019-05-26T01:37:06.418Z,14.20
2019-05-26T01:39:42.994Z,14.20
2019-05-26T01:42:14.861Z,14.20
2019-05-26T01:44:48.279Z,14.20
2019-05-26T01:47:21.040Z,14.10
2019-05-26T01:50:04.264Z,14.10
2019-05-26T01:52:49.975Z,14.10
2019-05-26T01:55:20.879Z,14.10
2019-05-26T01:57:51.752Z,14.10
2019-05-26T02:00:23.987Z,14.10
2019-05-26T02:02:58.731Z,14.10
2019-05-26T02:05:31.938Z,14.00
2019-05-26T02:08:11.895Z,14.00
2019-05-26T02:10:41.178Z,14.00
2019-05-26T02:13:12.460Z,14.00
2019-05-26T02:15:44.450Z,13.90
2019-05-26T02:18:18.193Z,13.90
2019-05-26T02:20:52.844Z,13.80
2019-05-26T02:23:27.006Z,13.70
2019-05-26T02:25:57.994Z,13.60
2019-05-26T02:28:32.580Z,13.60
2019-05-26T02:31:04.981Z,13.50
2019-05-26T02:33:40.327Z,13.50
2019-05-26T02:36:12.907Z,13.40
2019-05-26T02:39:01.471Z,13.40
2019-05-26T02:41:21.488Z,13.40
2019-05-26T02:43:54.130Z,13.30
2019-05-26T02:46:25.904Z,13.30
2019-05-26T02:48:58.603Z,13.30
2019-05-26T02:51:30.993Z,13.20
2019-05-26T02:54:03.074Z,13.20
2019-05-26T02:56:40.237Z,13.20
2019-05-26T02:59:12.393Z,13.20
2019-05-26T03:02:00.802Z,13.20
2019-05-26T03:04:18.503Z,13.20
2019-05-26T03:06:51.827Z,13.10
2019-05-26T03:09:25.848Z,13.10
2019-05-26T03:11:59.212Z,13.10
2019-05-26T03:14:34.272Z,13.10
2019-05-26T03:17:06.294Z,13.10
2019-05-26T03:19:39.583Z,13.00
2019-05-26T03:22:13.116Z,13.00
2019-05-26T03:24:45.119Z,13.00
2019-05-26T03:27:14.496Z,13.00
2019-05-26T03:29:45.476Z,13.00
2019-05-26T03:32:16.169Z,13.00
2019-05-26T03:34:48.243Z,13.00
2019-05-26T03:37:18.597Z,13.00
2019-05-26T03:39:48.677Z,13.00
2019-05-26T03:42:18.470Z,13.00
2019-05-26T03:44:47.869Z,13.10
2019-05-26T03:47:17.398Z,13.10
2019-05-26T03:49:47.076Z,13.10
2019-05-26T03:52:16.727Z,13.10
2019-05-26T03:54:49.228Z,13.10
2019-05-26T03:57:18.641Z,13.10
2019-05-26T03:59:48.034Z,13.10
2019-05-26T04:02:17.494Z,13.10
2019-05-26T04:04:46.904Z,13.10
2019-05-26T04:07:16.292Z,13.10
2019-05-26T04:10:03.030Z,13.10
2019-05-26T04:12:16.737Z,13.20
2019-05-26T04:14:46.164Z,13.20
2019-05-26T04:17:15.550Z,13.30
2019-05-26T04:19:45.691Z,13.30
2019-05-26T04:22:15.030Z,13.40
2019-05-26T04:24:44.545Z,13.50
2019-05-26T04:27:13.949Z,13.50
2019-05-26T04:29:43.344Z,13.60
2019-05-26T04:32:12.756Z,13.70
2019-05-26T04:34:42.140Z,13.70
2019-05-26T04:37:11.533Z,13.80
2019-05-26T04:39:40.923Z,13.90
2019-05-26T04:42:10.323Z,14.00
2019-05-26T04:44:39.744Z,14.00
2019-05-26T04:47:09.232Z,14.00
2019-05-26T04:49:38.635Z,14.00
2019-05-26T04:52:08.084Z,14.00
2019-05-26T04:54:37.534Z,14.00
2019-05-26T04:57:07.053Z,14.00
2019-05-26T04:59:36.466Z,14.00
2019-05-26T05:02:05.901Z,14.00
2019-05-26T05:04:35.331Z,14.00
2019-05-26T05:07:04.761Z,14.00
2019-05-26T05:09:34.189Z,14.00
2019-05-26T05:12:03.680Z,14.00
2019-05-26T05:14:33.080Z,14.00
2019-05-26T05:17:02.492Z,14.10
2019-05-26T05:19:31.910Z,14.10
2019-05-26T05:22:01.367Z,14.10
2019-05-26T05:24:30.751Z,14.20
2019-05-26T05:27:00.214Z,14.20
2019-05-26T05:29:29.587Z,14.30
2019-05-26T05:31:59.104Z,14.30
2019-05-26T05:34:28.507Z,14.40
2019-05-26T05:36:57.914Z,14.40
2019-05-26T05:39:27.411Z,14.40
2019-05-26T05:41:56.926Z,14.40
2019-05-26T05:44:26.430Z,14.50
2019-05-26T05:46:55.840Z,14.50
2019-05-26T05:49:25.251Z,14.60
2019-05-26T05:51:54.653Z,14.60
2019-05-26T05:54:24.215Z,14.60
2019-05-26T05:56:55.714Z,14.70
2019-05-26T05:59:24.700Z,14.80
2019-05-26T06:01:54.089Z,14.90
2019-05-26T06:04:23.514Z,14.90
2019-05-26T06:06:52.901Z,14.90
2019-05-26T06:09:22.301Z,15.00
2019-05-26T06:11:56.481Z,15.10
2019-05-26T06:14:22.879Z,15.10
2019-05-26T06:16:52.319Z,15.20
2019-05-26T06:19:21.649Z,15.20
2019-05-26T06:21:51.122Z,15.30
2019-05-26T06:24:20.455Z,15.40
2019-05-26T06:26:49.980Z,15.50
2019-05-26T06:29:19.386Z,15.50
2019-05-26T06:31:49.099Z,15.60
2019-05-26T06:34:18.741Z,15.80
2019-05-26T06:36:48.124Z,15.90
2019-05-26T06:39:17.520Z,15.90
2019-05-26T06:41:46.923Z,16.00
2019-05-26T06:44:16.602Z,16.20
2019-05-26T06:46:45.983Z,16.40
2019-05-26T06:49:15.423Z,16.40
2019-05-26T06:51:44.825Z,16.50
2019-05-26T06:54:14.327Z,16.60
2019-05-26T06:56:44.090Z,16.70
2019-05-26T06:59:13.501Z,16.80
2019-05-26T07:01:42.898Z,16.80
2019-05-26T07:04:12.357Z,16.80
2019-05-26T07:06:42.093Z,16.80
2019-05-26T07:09:11.494Z,16.80
2019-05-26T07:11:55.625Z,16.90
2019-05-26T07:14:12.027Z,16.90
2019-05-26T07:16:41.431Z,16.90
2019-05-26T07:19:10.821Z,16.90
2019-05-26T07:21:40.273Z,17.00
2019-05-26T07:24:09.666Z,17.00
2019-05-26T07:26:39.119Z,17.10
2019-05-26T07:29:08.605Z,17.20
2019-05-26T07:31:38.023Z,17.20
2019-05-26T07:34:07.448Z,17.30
2019-05-26T07:36:36.853Z,17.40
2019-05-26T07:39:08.782Z,17.50
2019-05-26T07:41:38.169Z,17.50
2019-05-26T07:44:07.570Z,17.60
2019-05-26T07:46:37.012Z,17.60
2019-05-26T07:49:06.467Z,17.60
2019-05-26T07:51:35.892Z,17.70
2019-05-26T07:54:05.744Z,17.80
2019-05-26T07:56:35.287Z,17.90
2019-05-26T07:59:04.816Z,17.90
2019-05-26T08:01:36.063Z,18.00
2019-05-26T08:04:05.720Z,18.00
2019-05-26T08:06:35.131Z,18.00
2019-05-26T08:09:06.394Z,18.10
2019-05-26T08:11:35.842Z,18.30
2019-05-26T08:14:05.379Z,18.30
2019-05-26T08:16:34.802Z,18.40
2019-05-26T08:19:04.312Z,18.50
2019-05-26T08:21:33.824Z,18.60
2019-05-26T08:24:03.261Z,18.60
2019-05-26T08:26:32.656Z,18.60
2019-05-26T08:29:02.049Z,18.70
2019-05-26T08:31:31.473Z,18.90
2019-05-26T08:34:00.876Z,19.00
2019-05-26T08:36:30.279Z,19.10
2019-05-26T08:38:59.723Z,19.10
2019-05-26T08:41:29.104Z,19.10
2019-05-26T08:43:59.367Z,19.10
2019-05-26T08:46:28.899Z,19.20
2019-05-26T08:48:58.321Z,19.40
2019-05-26T08:51:27.709Z,19.40
2019-05-26T08:53:57.107Z,19.50
2019-05-26T08:56:26.573Z,19.60
2019-05-26T08:58:56.022Z,19.70
2019-05-26T09:01:25.951Z,19.90
2019-05-26T09:03:55.360Z,20.00
2019-05-26T09:06:24.762Z,20.00
2019-05-26T09:08:54.181Z,19.90
2019-05-26T09:11:24.140Z,19.60
2019-05-26T09:13:53.543Z,19.40
2019-05-26T09:16:22.952Z,19.20
2019-05-26T09:18:52.360Z,19.10
2019-05-26T09:21:21.764Z,18.90
2019-05-26T09:23:51.146Z,18.90
2019-05-26T09:26:21.014Z,19.10
2019-05-26T09:28:50.403Z,19.40
2019-05-26T09:31:19.855Z,19.70
2019-05-26T09:33:49.237Z,20.00
2019-05-26T09:36:18.607Z,20.30
2019-05-26T09:38:48.070Z,20.70
2019-05-26T09:41:17.454Z,21.00
2019-05-26T09:43:46.895Z,21.10
2019-05-26T09:46:16.270Z,21.10
2019-05-26T09:48:45.662Z,21.10
2019-05-26T09:51:15.048Z,21.10
2019-05-26T09:53:44.579Z,20.90
2019-05-26T09:56:14.038Z,20.60
2019-05-26T09:58:43.454Z,20.50
2019-05-26T10:01:12.859Z,20.50
2019-05-26T10:03:42.296Z,20.60
2019-05-26T10:06:11.700Z,20.80
2019-05-26T10:08:41.093Z,20.80
2019-05-26T10:11:10.499Z,20.80
2019-05-26T10:13:39.911Z,20.90
2019-05-26T10:16:09.281Z,21.00
2019-05-26T10:18:38.671Z,21.00
2019-05-26T10:21:08.072Z,21.00
2019-05-26T10:23:37.502Z,21.00
2019-05-26T10:26:06.925Z,21.10
2019-05-26T10:28:36.335Z,21.10
2019-05-26T10:31:05.760Z,21.00
2019-05-26T10:33:35.436Z,21.10
2019-05-26T10:36:04.843Z,21.00
2019-05-26T10:38:34.288Z,20.90
2019-05-26T10:41:03.883Z,20.70
2019-05-26T10:43:46.861Z,20.60
2019-05-26T10:46:07.004Z,20.60
2019-05-26T10:48:36.405Z,20.60
2019-05-26T10:51:06.968Z,20.50
2019-05-26T10:53:36.428Z,20.50
2019-05-26T10:56:05.965Z,20.60
2019-05-26T10:58:35.363Z,20.70
2019-05-26T11:01:04.887Z,21.00
2019-05-26T11:03:34.293Z,21.10
2019-05-26T11:06:03.796Z,21.30
2019-05-26T11:08:33.179Z,21.40
2019-05-26T11:11:02.598Z,21.60
2019-05-26T11:13:31.995Z,21.90
2019-05-26T11:16:01.404Z,21.90
2019-05-26T11:18:30.837Z,22.00
2019-05-26T11:21:00.252Z,22.10
2019-05-26T11:23:29.668Z,22.20
2019-05-26T11:25:59.052Z,22.40
2019-05-26T11:28:28.495Z,22.60
2019-05-26T11:30:57.815Z,22.90
2019-05-26T11:33:27.210Z,23.10
2019-05-26T11:35:56.608Z,23.10
2019-05-26T11:38:25.993Z,23.20
2019-05-26T11:40:55.422Z,23.30
2019-05-26T11:43:26.902Z,23.50
2019-05-26T11:45:56.311Z,23.70
2019-05-26T11:48:25.623Z,23.70
2019-05-26T11:50:56.491Z,23.50
2019-05-26T11:53:25.955Z,23.40
2019-05-26T11:55:55.460Z,23.40
2019-05-26T11:58:24.960Z,23.20
2019-05-26T12:00:54.323Z,23.00
2019-05-26T12:03:23.815Z,22.80
2019-05-26T12:05:53.287Z,22.80
2019-05-26T12:08:22.686Z,22.80
2019-05-26T12:10:52.094Z,22.80
2019-05-26T12:13:21.428Z,22.70
2019-05-26T12:15:50.812Z,22.70
2019-05-26T12:18:20.296Z,22.70
2019-05-26T12:20:49.692Z,22.70
2019-05-26T12:23:19.115Z,22.80
2019-05-26T12:25:48.787Z,22.80
2019-05-26T12:28:18.149Z,22.90
2019-05-26T12:30:47.556Z,22.90
2019-05-26T12:33:16.962Z,22.90
2019-05-26T12:35:46.811Z,23.10
2019-05-26T12:38:16.191Z,23.30
2019-05-26T12:40:45.599Z,23.40
2019-05-26T12:43:16.239Z,23.50
2019-05-26T12:45:45.642Z,23.60
2019-05-26T12:48:15.021Z,23.60
2019-05-26T12:50:44.412Z,23.50
2019-05-26T12:53:13.943Z,23.40
2019-05-26T12:55:43.355Z,23.30
2019-05-26T12:58:12.809Z,23.20
2019-05-26T13:00:48.662Z,23.10
2019-05-26T13:03:13.413Z,22.90
2019-05-26T13:05:43.520Z,22.90
2019-05-26T13:08:12.966Z,22.90
2019-05-26T13:10:42.345Z,23.00
2019-05-26T13:13:11.778Z,23.00
2019-05-26T13:15:41.185Z,23.10
2019-05-26T13:18:10.626Z,23.40
2019-05-26T13:20:40.030Z,23.70
2019-05-26T13:23:09.444Z,23.90
2019-05-26T13:25:38.854Z,24.20
2019-05-26T13:28:08.258Z,24.30
2019-05-26T13:30:38.351Z,24.50
2019-05-26T13:33:07.738Z,24.60
2019-05-26T13:35:37.621Z,24.80
2019-05-26T13:38:07.072Z,25.00
2019-05-26T13:40:36.488Z,25.20
2019-05-26T13:43:05.919Z,25.30
2019-05-26T13:45:35.333Z,25.00
2019-05-26T13:48:04.711Z,24.90
2019-05-26T13:50:34.119Z,24.80
2019-05-26T13:53:03.486Z,24.70
2019-05-26T13:55:32.935Z,24.60
2019-05-26T13:58:02.393Z,24.60
2019-05-26T14:00:31.824Z,24.60
2019-05-26T14:03:01.291Z,24.50
2019-05-26T14:05:30.741Z,24.60
2019-05-26T14:08:00.150Z,24.60
2019-05-26T14:10:34.291Z,24.50
2019-05-26T14:13:04.583Z,24.40
2019-05-26T14:15:38.606Z,24.20
2019-05-26T14:18:06.754Z,24.30
2019-05-26T14:20:40.208Z,24.30
2019-05-26T14:23:11.698Z,24.40
2019-05-26T14:25:41.068Z,24.40
2019-05-26T14:28:10.442Z,24.40
2019-05-26T14:30:39.859Z,24.50
2019-05-26T14:33:09.235Z,24.40
2019-05-26T14:35:38.643Z,24.40
2019-05-26T14:38:08.055Z,24.50
2019-05-26T14:40:37.471Z,24.60
2019-05-26T14:43:06.972Z,24.70
2019-05-26T14:45:36.501Z,24.80
2019-05-26T14:48:06.263Z,24.90
2019-05-26T14:50:35.727Z,25.00
2019-05-26T14:53:05.129Z,25.00
2019-05-26T14:55:34.578Z,25.00
2019-05-26T14:58:14.841Z,24.90
2019-05-26T15:00:35.037Z,24.70
2019-05-26T15:03:04.721Z,24.80
2019-05-26T15:05:34.057Z,25.10
2019-05-26T15:08:03.473Z,25.70
2019-05-26T15:10:32.894Z,26.20
2019-05-26T15:13:02.303Z,26.40
2019-05-26T15:15:34.908Z,26.30
2019-05-26T15:18:02.719Z,25.90
2019-05-26T15:20:32.113Z,25.50
2019-05-26T15:23:01.565Z,25.20
2019-05-26T15:25:31.048Z,25.00
2019-05-26T15:28:00.459Z,24.80
2019-05-26T15:30:29.950Z,24.90
2019-05-26T15:32:59.496Z,25.20
2019-05-26T15:35:28.916Z,25.40
2019-05-26T15:37:58.387Z,25.60
2019-05-26T15:40:27.921Z,25.50
2019-05-26T15:42:57.331Z,25.20
2019-05-26T15:45:26.763Z,25.20
2019-05-26T15:47:56.147Z,25.10
2019-05-26T15:50:25.570Z,25.50
2019-05-26T15:52:55.067Z,26.10
2019-05-26T15:55:24.469Z,26.80
2019-05-26T15:57:53.859Z,26.80
2019-05-26T16:00:23.620Z,27.30
2019-05-26T16:02:53.046Z,28.40
2019-05-26T16:05:22.375Z,29.20
2019-05-26T16:07:51.823Z,29.80
2019-05-26T16:10:21.222Z,30.50
2019-05-26T16:12:50.625Z,31.00
2019-05-26T16:15:20.259Z,31.30
2019-05-26T16:17:49.673Z,31.70
2019-05-26T16:20:19.191Z,32.20
2019-05-26T16:22:48.654Z,32.70
2019-05-26T16:25:18.079Z,32.50
2019-05-26T16:27:47.467Z,31.30
2019-05-26T16:30:17.511Z,30.20
2019-05-26T16:32:46.886Z,30.00
2019-05-26T16:35:16.331Z,29.90
2019-05-26T16:37:45.719Z,29.70
2019-05-26T16:40:15.122Z,29.50
2019-05-26T16:42:44.508Z,30.00
2019-05-26T16:45:14.227Z,30.70
2019-05-26T16:47:43.883Z,31.60
2019-05-26T16:50:13.511Z,32.10
2019-05-26T16:52:42.896Z,32.70
2019-05-26T16:55:12.379Z,33.10
2019-05-26T16:57:41.815Z,33.40
2019-05-26T17:00:11.800Z,33.70
2019-05-26T17:02:41.244Z,34.20
2019-05-26T17:05:10.818Z,34.30
2019-05-26T17:07:40.235Z,34.00
2019-05-26T17:10:09.928Z,33.80
2019-05-26T17:12:39.342Z,33.90
2019-05-26T17:15:08.888Z,33.50
2019-05-26T17:17:38.279Z,33.10
2019-05-26T17:20:08.694Z,32.30
2019-05-26T17:22:38.131Z,32.00
2019-05-26T17:25:07.729Z,31.80
2019-05-26T17:27:37.110Z,31.60
2019-05-26T17:30:06.671Z,30.90
2019-05-26T17:32:36.070Z,29.70
2019-05-26T17:35:05.773Z,28.50
2019-05-26T17:37:35.459Z,27.40
2019-05-26T17:40:05.803Z,26.50
2019-05-26T17:42:35.580Z,25.80
2019-05-26T17:45:05.646Z,25.20
2019-05-26T17:47:35.062Z,24.70
2019-05-26T17:50:05.530Z,24.20
2019-05-26T17:52:34.941Z,23.90
2019-05-26T17:55:04.860Z,23.60
2019-05-26T17:57:37.085Z,23.30
2019-05-26T18:00:06.659Z,23.00
2019-05-26T18:02:36.044Z,22.70
2019-05-26T18:05:05.792Z,22.50
2019-05-26T18:07:35.217Z,22.40
2019-05-26T18:10:04.744Z,22.30
2019-05-26T18:12:34.172Z,22.10
2019-05-26T18:15:03.558Z,22.00
2019-05-26T18:17:45.974Z,21.80
2019-05-26T18:20:04.496Z,21.70
2019-05-26T18:22:33.913Z,21.60
2019-05-26T18:25:03.508Z,21.40
2019-05-26T18:27:32.888Z,21.30
2019-05-26T18:30:02.288Z,21.10
2019-05-26T18:32:31.659Z,21.10
2019-05-26T18:35:01.266Z,20.90
2019-05-26T18:37:31.071Z,20.80
2019-05-26T18:40:00.495Z,20.60
2019-05-26T18:42:29.882Z,20.50
2019-05-26T18:44:59.448Z,20.40
2019-05-26T18:47:28.875Z,20.20
2019-05-26T18:49:58.298Z,20.20
2019-05-26T18:52:27.671Z,20.10
2019-05-26T18:54:57.067Z,20.00
2019-05-26T18:57:26.459Z,19.80
2019-05-26T18:59:55.944Z,19.80
2019-05-26T19:02:25.487Z,19.70
2019-05-26T19:04:54.923Z,19.60
2019-05-26T19:07:24.355Z,19.50
2019-05-26T19:09:53.778Z,19.40
2019-05-26T19:12:23.143Z,19.40
2019-05-26T19:14:52.511Z,19.30
2019-05-26T19:17:21.998Z,19.20
2019-05-26T19:19:51.459Z,19.20
2019-05-26T19:22:20.846Z,19.10
2019-05-26T19:24:50.280Z,19.00
2019-05-26T19:27:19.666Z,19.00
2019-05-26T19:29:49.071Z,18.90
2019-05-26T19:32:18.508Z,18.80
2019-05-26T19:34:48.008Z,18.80
2019-05-26T19:37:17.428Z,18.70
2019-05-26T19:39:46.855Z,18.70
2019-05-26T19:42:16.252Z,18.60
2019-05-26T19:44:45.679Z,18.60
2019-05-26T19:47:15.109Z,18.50
2019-05-26T19:49:44.487Z,18.50
2019-05-26T19:52:13.839Z,18.40
2019-05-26T19:54:43.240Z,18.40
2019-05-26T19:57:12.691Z,18.30
2019-05-26T19:59:42.098Z,18.30
2019-05-26T20:02:18.499Z,18.20
2019-05-26T20:04:42.692Z,18.20
2019-05-26T20:07:12.103Z,18.10
2019-05-26T20:09:41.568Z,18.10
2019-05-26T20:12:10.966Z,18.00
2019-05-26T20:14:40.664Z,18.00
2019-05-26T20:17:10.058Z,17.90
2019-05-26T20:19:39.488Z,17.80
2019-05-26T20:22:08.871Z,17.80
2019-05-26T20:24:38.457Z,17.80
2019-05-26T20:27:07.868Z,17.80
2019-05-26T20:29:37.262Z,17.80
2019-05-26T20:32:06.661Z,17.80
2019-05-26T20:34:36.029Z,17.80
2019-05-26T20:37:05.456Z,17.70
2019-05-26T20:39:34.910Z,17.70
2019-05-26T20:42:04.429Z,17.70
2019-05-26T20:44:33.850Z,17.60
2019-05-26T20:47:03.264Z,17.50
2019-05-26T20:49:44.927Z,17.50
2019-05-26T20:52:03.736Z,17.40
2019-05-26T20:54:33.144Z,17.40
2019-05-26T20:57:02.557Z,17.30
2019-05-26T20:59:31.987Z,17.30
2019-05-26T21:02:01.433Z,17.20
2019-05-26T21:04:31.155Z,17.20
2019-05-26T21:07:00.598Z,17.10
2019-05-26T21:09:29.992Z,17.10
2019-05-26T21:11:59.384Z,17.00
2019-05-26T21:14:28.803Z,17.00
2019-05-26T21:16:58.216Z,16.90
2019-05-26T21:19:27.660Z,16.90
2019-05-26T21:21:57.082Z,16.80
2019-05-26T21:24:26.470Z,16.80
2019-05-26T21:26:55.897Z,16.70
2019-05-26T21:29:25.313Z,16.70
2019-05-26T21:31:54.772Z,16.60
2019-05-26T21:34:24.168Z,16.60
2019-05-26T21:36:53.612Z,16.60
2019-05-26T21:39:23.010Z,16.50
2019-05-26T21:41:52.406Z,16.50
2019-05-26T21:44:22.012Z,16.50
2019-05-26T21:46:51.441Z,16.40
2019-05-26T21:49:20.920Z,16.40
2019-05-26T21:51:53.087Z,16.40
2019-05-26T21:54:22.495Z,16.40
2019-05-26T21:56:51.994Z,16.30
2019-05-26T21:59:21.465Z,16.20
2019-05-26T22:01:50.907Z,16.20
2019-05-26T22:04:20.519Z,16.10
2019-05-26T22:06:49.916Z,16.10
2019-05-26T22:09:19.370Z,16.00
2019-05-26T22:11:48.985Z,16.00
2019-05-26T22:14:18.410Z,16.00
2019-05-26T22:16:47.795Z,16.00
2019-05-26T22:19:17.282Z,16.00
2019-05-26T22:21:46.660Z,15.90
2019-05-26T22:24:16.099Z,15.90
2019-05-26T22:26:45.515Z,15.90
2019-05-26T22:29:14.920Z,15.90
2019-05-26T22:31:44.320Z,15.80
2019-05-26T22:34:13.706Z,15.80
2019-05-26T22:36:43.138Z,15.80
2019-05-26T22:39:12.527Z,15.80
2019-05-26T22:41:41.948Z,15.70
2019-05-26T22:44:11.372Z,15.70
2019-05-26T22:46:40.893Z,15.60
2019-05-26T22:49:10.263Z,15.60
2019-05-26T22:51:39.675Z,15.60
2019-05-26T22:54:09.064Z,15.50
2019-05-26T22:56:38.499Z,15.50
2019-05-26T22:59:07.906Z,15.40
2019-05-26T23:01:37.355Z,15.40
2019-05-26T23:04:06.763Z,15.40
2019-05-26T23:06:36.180Z,15.40
2019-05-26T23:09:06.260Z,15.30
2019-05-26T23:11:35.651Z,15.20
2019-05-26T23:14:05.052Z,15.20
2019-05-26T23:16:34.963Z,15.10
2019-05-26T23:19:18.291Z,15.10
2019-05-26T23:21:35.397Z,15.00
2019-05-26T23:24:04.814Z,15.00
2019-05-26T23:26:34.671Z,15.00
2019-05-26T23:29:04.053Z,14.90
2019-05-26T23:31:33.485Z,14.80
2019-05-26T23:34:02.872Z,14.80
2019-05-26T23:36:32.291Z,14.80
2019-05-26T23:39:01.748Z,14.70
2019-05-26T23:41:31.188Z,14.70
2019-05-26T23:44:00.574Z,14.60
2019-05-26T23:46:30.067Z,14.60
2019-05-26T23:48:59.504Z,14.70
2019-05-26T23:51:28.890Z,14.60
2019-05-26T23:53:58.355Z,14.70
2019-05-26T23:56:27.746Z,14.60
2019-05-26T23:58:57.181Z,14.60
